Time;durP1;ratioP1;P1;durP2;ratioP2;P2;SDS_P1;SDS_P2;PMS_P1;PMS_P2;Temp;Humidity;BMP_temperature;BMP_pressure;BME280_temperature;BME280_humidity;BME280_pressure;Samples;Min_cycle;Max_cycle;Signal;HPM_P1;HPM_P2
2021/10/07 00:00:43;;;;;;;13.80;6.35;;;12.20;99.90;;;;;;6181580;23;19997;-83
2021/10/07 00:03:08;;;;;;;14.40;5.70;;;12.20;99.90;;;;;;6181493;23;20001;-83
2021/10/07 00:05:34;;;;;;;13.80;5.22;;;12.20;99.90;;;;;;6181769;23;20324;-83
2021/10/07 00:08:00;;;;;;;12.35;5.03;;;12.20;99.90;;;;;;6182174;23;20067;-83
2021/10/07 00:10:27;;;;;;;12.52;4.72;;;12.20;99.90;;;;;;6181650;23;20005;-83
2021/10/07 00:12:53;;;;;;;10.10;4.18;;;12.20;99.90;;;;;;6181776;23;20013;-83
2021/10/07 00:15:20;;;;;;;11.63;4.05;;;12.20;99.90;;;;;;6181544;23;19999;-83
2021/10/07 00:17:46;;;;;;;11.00;4.28;;;12.20;99.90;;;;;;6181582;23;20152;-83
2021/10/07 00:20:14;;;;;;;12.13;5.20;;;12.20;99.90;;;;;;6181628;23;20337;-83
2021/10/07 00:22:41;;;;;;;15.43;7.30;;;12.10;99.90;;;;;;6181621;23;20024;-83
2021/10/07 00:25:09;;;;;;;12.27;6.10;;;12.10;99.90;;;;;;6181497;23;20011;-83
2021/10/07 00:27:35;;;;;;;16.98;6.60;;;12.10;99.90;;;;;;6181935;23;20001;-83
2021/10/07 00:30:11;;;;;;;18.63;5.82;;;12.10;99.90;;;;;;6181714;23;19998;-83
2021/10/07 00:32:44;;;;;;;10.95;5.30;;;12.00;99.90;;;;;;6181308;23;20071;-83
2021/10/07 00:40:09;;;;;;;11.90;4.38;;;12.00;99.90;;;;;;6181707;23;20001;-83
2021/10/07 00:42:35;;;;;;;9.30;3.72;;;12.00;99.90;;;;;;6181610;23;20047;-83
2021/10/07 00:45:01;;;;;;;12.30;3.72;;;12.00;99.90;;;;;;6181630;23;20000;-83
2021/10/07 00:47:26;;;;;;;9.52;3.80;;;12.00;99.90;;;;;;6180990;23;20427;-83
2021/10/07 00:49:52;;;;;;;9.68;3.47;;;12.00;99.90;;;;;;6181645;23;20004;-82
2021/10/07 00:52:20;;;;;;;10.85;3.50;;;12.00;99.90;;;;;;6181571;23;20009;-83
2021/10/07 00:54:52;;;;;;;12.13;3.58;;;12.00;99.90;;;;;;6181691;23;20084;-83
2021/10/07 00:57:20;;;;;;;12.50;3.33;;;12.00;99.90;;;;;;6181862;23;20240;-84
2021/10/07 00:59:47;;;;;;;9.85;3.10;;;12.00;99.90;;;;;;6155204;23;20025;-83
2021/10/07 01:02:14;;;;;;;10.30;3.00;;;12.00;99.90;;;;;;6182306;23;20005;-83
2021/10/07 01:04:40;;;;;;;7.53;3.03;;;12.00;99.90;;;;;;6183472;23;20009;-84
2021/10/07 01:07:08;;;;;;;9.52;3.08;;;11.90;99.90;;;;;;6183439;23;20001;-83
2021/10/07 01:09:34;;;;;;;7.25;3.22;;;11.90;99.90;;;;;;6156825;23;20112;-83
2021/10/07 01:12:02;;;;;;;12.18;3.33;;;11.90;99.90;;;;;;6183099;23;20041;-83
2021/10/07 01:14:51;;;;;;;9.45;3.47;;;11.90;99.90;;;;;;6183656;23;20035;-83
2021/10/07 01:17:23;;;;;;;10.40;2.92;;;11.80;99.90;;;;;;6183075;23;20052;-83
2021/10/07 01:19:51;;;;;;;9.20;2.88;;;11.80;99.90;;;;;;6183273;23;20431;-83
2021/10/07 01:22:19;;;;;;;7.03;3.08;;;11.80;99.90;;;;;;6183284;23;20477;-83
2021/10/07 01:24:45;;;;;;;11.13;3.40;;;11.80;99.90;;;;;;6183180;23;20308;-83
2021/10/07 01:27:11;;;;;;;13.13;3.72;;;11.80;99.90;;;;;;6183402;23;20001;-83
2021/10/07 01:29:38;;;;;;;6.07;2.67;;;11.80;99.90;;;;;;6182856;23;20016;-83
2021/10/07 01:32:05;;;;;;;11.95;2.45;;;11.80;99.90;;;;;;6182503;23;20096;-83
2021/10/07 01:34:31;;;;;;;6.35;2.63;;;11.80;99.90;;;;;;6182916;23;20005;-83
2021/10/07 01:36:58;;;;;;;6.03;2.40;;;11.80;99.90;;;;;;6156525;23;20012;-83
2021/10/07 01:39:24;;;;;;;5.57;2.30;;;11.70;99.90;;;;;;6183004;23;20085;-83
2021/10/07 01:41:51;;;;;;;9.75;3.05;;;11.70;99.90;;;;;;6183020;23;20028;-83
2021/10/07 01:44:21;;;;;;;9.43;2.50;;;11.70;99.90;;;;;;6183145;23;20015;-83
2021/10/07 01:46:47;;;;;;;7.45;2.38;;;11.70;99.90;;;;;;6182640;23;20001;-83
2021/10/07 01:49:13;;;;;;;10.98;2.55;;;11.70;99.90;;;;;;6182905;23;20063;-83
2021/10/07 01:51:41;;;;;;;8.57;2.65;;;11.60;99.90;;;;;;6182794;23;20009;-83
2021/10/07 01:54:07;;;;;;;7.57;2.55;;;11.70;99.90;;;;;;6183424;23;20426;-83
2021/10/07 01:56:33;;;;;;;5.95;2.10;;;11.60;99.90;;;;;;6182864;23;20012;-83
2021/10/07 01:58:59;;;;;;;7.43;2.53;;;11.60;99.90;;;;;;6182681;23;20001;-83
2021/10/07 02:01:25;;;;;;;5.80;2.53;;;11.60;99.90;;;;;;6182713;23;20067;-83
2021/10/07 02:03:51;;;;;;;8.68;2.45;;;11.60;99.90;;;;;;6183023;23;20008;-83
2021/10/07 02:06:16;;;;;;;6.80;2.08;;;11.60;99.90;;;;;;6184331;23;20415;-83
2021/10/07 02:08:42;;;;;;;7.03;2.30;;;11.60;99.90;;;;;;6162394;23;20005;-83
2021/10/07 02:11:09;;;;;;;9.32;2.47;;;11.60;99.90;;;;;;6188641;23;20110;-83
2021/10/07 02:13:36;;;;;;;9.32;2.40;;;11.60;99.90;;;;;;6187683;23;20017;-83
2021/10/07 02:16:02;;;;;;;9.68;2.70;;;11.50;99.90;;;;;;6188265;23;20481;-84
2021/10/07 02:18:28;;;;;;;8.93;2.42;;;11.60;99.90;;;;;;6156846;23;20009;-83
2021/10/07 02:20:54;;;;;;;11.13;2.60;;;11.50;99.90;;;;;;6182639;23;20466;-83
2021/10/07 02:23:20;;;;;;;11.57;2.25;;;11.50;99.90;;;;;;6183418;23;20005;-83
2021/10/07 02:25:46;;;;;;;7.20;2.35;;;11.50;99.90;;;;;;6182844;23;20008;-83
2021/10/07 02:28:13;;;;;;;7.00;2.10;;;11.50;99.90;;;;;;6156253;23;20438;-84
2021/10/07 02:30:39;;;;;;;7.25;2.47;;;11.40;99.90;;;;;;6182386;23;20001;-83
2021/10/07 02:33:05;;;;;;;8.75;2.67;;;11.50;99.90;;;;;;6182185;23;20016;-84
2021/10/07 02:35:31;;;;;;;9.82;2.60;;;11.40;99.90;;;;;;6182487;23;20055;-83
2021/10/07 02:37:56;;;;;;;11.20;3.15;;;11.50;99.90;;;;;;6182290;23;20009;-83
2021/10/07 02:40:22;;;;;;;11.45;2.78;;;11.50;99.90;;;;;;6182562;23;20080;-84
2021/10/07 02:42:48;;;;;;;8.30;2.10;;;11.40;99.90;;;;;;6182627;23;20142;-83
2021/10/07 02:45:15;;;;;;;8.80;2.30;;;11.50;99.90;;;;;;6183083;23;20068;-84
2021/10/07 02:47:42;;;;;;;11.68;2.58;;;11.50;99.90;;;;;;6182205;23;20013;-83
2021/10/07 02:50:09;;;;;;;13.48;2.60;;;11.40;99.90;;;;;;6182440;23;20005;-83
2021/10/07 02:52:35;;;;;;;7.90;1.95;;;11.40;99.90;;;;;;6182764;23;20095;-83
2021/10/07 02:55:01;;;;;;;10.18;1.88;;;11.40;99.90;;;;;;6182580;23;19997;-84
2021/10/07 02:57:26;;;;;;;7.40;2.13;;;11.40;99.90;;;;;;6182298;23;20534;-83
2021/10/07 02:59:52;;;;;;;8.55;2.03;;;11.40;99.90;;;;;;6182336;23;20394;-83
2021/10/07 03:02:18;;;;;;;9.65;1.85;;;11.40;99.90;;;;;;6181991;23;20008;-83
2021/10/07 03:04:44;;;;;;;6.20;1.42;;;11.40;99.90;;;;;;6182435;23;20001;-83
2021/10/07 03:07:11;;;;;;;6.30;1.60;;;11.40;99.90;;;;;;6182036;23;20028;-83
2021/10/07 03:09:38;;;;;;;8.50;2.05;;;11.40;99.90;;;;;;6182204;23;19997;-83
2021/10/07 03:12:05;;;;;;;7.10;1.85;;;11.40;99.90;;;;;;6182321;23;20080;-83
2021/10/07 03:14:31;;;;;;;12.10;2.00;;;11.30;99.90;;;;;;6182252;23;20024;-83
2021/10/07 03:16:56;;;;;;;5.00;2.00;;;11.40;99.90;;;;;;6181965;23;20017;-83
2021/10/07 03:19:22;;;;;;;10.90;2.63;;;11.40;99.90;;;;;;6181969;23;20079;-83
2021/10/07 03:21:48;;;;;;;6.68;1.90;;;11.30;99.90;;;;;;6156008;23;20011;-83
2021/10/07 03:24:13;;;;;;;8.00;2.20;;;11.40;99.90;;;;;;6182168;23;20024;-84
2021/10/07 03:26:39;;;;;;;9.73;1.60;;;11.30;99.90;;;;;;6181301;23;20040;-83
2021/10/07 03:29:05;;;;;;;8.10;1.92;;;11.30;99.90;;;;;;6182400;23;20061;-83
2021/10/07 03:31:30;;;;;;;6.93;1.60;;;11.30;99.90;;;;;;6181865;23;20063;-83
2021/10/07 03:33:56;;;;;;;8.40;1.75;;;11.30;99.90;;;;;;6181881;23;20009;-83
2021/10/07 03:36:21;;;;;;;9.00;1.70;;;11.20;99.90;;;;;;6181808;23;20407;-83
2021/10/07 03:38:47;;;;;;;7.93;2.22;;;11.20;99.90;;;;;;6181980;23;20012;-84
2021/10/07 03:41:13;;;;;;;11.18;1.88;;;11.30;99.90;;;;;;6181888;23;20226;-83
2021/10/07 03:43:39;;;;;;;6.75;1.80;;;11.30;99.90;;;;;;6181979;23;19997;-83
2021/10/07 03:46:05;;;;;;;8.07;1.83;;;11.20;99.90;;;;;;6181985;23;20017;-83
2021/10/07 03:48:30;;;;;;;6.53;1.80;;;11.20;99.90;;;;;;6181999;23;20037;-83
2021/10/07 03:50:56;;;;;;;8.02;1.80;;;11.20;99.90;;;;;;6155461;23;20446;-83
2021/10/07 03:53:23;;;;;;;7.15;2.13;;;11.30;99.90;;;;;;6181810;23;20013;-83
2021/10/07 03:55:49;;;;;;;7.78;1.80;;;11.20;99.90;;;;;;6182332;23;20008;-84
2021/10/07 03:58:14;;;;;;;8.77;1.80;;;11.20;99.90;;;;;;6181921;23;20005;-84
2021/10/07 04:00:40;;;;;;;7.55;1.92;;;11.20;99.90;;;;;;6181683;23;20091;-83
2021/10/07 04:03:06;;;;;;;11.65;2.17;;;11.20;99.90;;;;;;6181943;23;20005;-83
2021/10/07 04:05:32;;;;;;;7.75;2.10;;;11.20;99.90;;;;;;6181674;23;20008;-83
2021/10/07 04:07:57;;;;;;;8.15;1.95;;;11.20;99.90;;;;;;6181660;23;20001;-83
2021/10/07 04:10:23;;;;;;;7.07;1.95;;;11.20;99.90;;;;;;6181731;23;20269;-83
2021/10/07 04:12:49;;;;;;;11.70;1.90;;;11.20;99.90;;;;;;6181968;23;20036;-83
2021/10/07 04:15:14;;;;;;;17.80;2.17;;;11.20;99.90;;;;;;6181518;23;20212;-83
2021/10/07 04:17:40;;;;;;;7.75;1.85;;;11.20;99.90;;;;;;6181561;23;20372;-83
2021/10/07 04:20:06;;;;;;;5.25;1.60;;;11.10;99.90;;;;;;6181778;23;20005;-83
2021/10/07 04:22:32;;;;;;;8.05;1.80;;;11.10;99.90;;;;;;6181716;23;20458;-83
2021/10/07 04:24:58;;;;;;;7.63;1.80;;;11.10;99.90;;;;;;6155088;23;19997;-83
2021/10/07 04:27:24;;;;;;;8.43;1.75;;;11.10;99.90;;;;;;6182161;23;20005;-83
2021/10/07 04:29:50;;;;;;;10.52;2.33;;;11.10;99.90;;;;;;6155514;23;20012;-84
2021/10/07 04:32:15;;;;;;;8.65;2.05;;;11.10;99.90;;;;;;6154911;23;20012;-83
2021/10/07 04:34:41;;;;;;;8.82;2.35;;;11.10;99.90;;;;;;6181434;23;20002;-83
2021/10/07 04:37:07;;;;;;;10.27;1.80;;;11.10;99.90;;;;;;6185110;23;19993;-83
2021/10/07 04:39:32;;;;;;;8.27;2.50;;;11.10;99.90;;;;;;6186970;23;20035;-83
2021/10/07 04:41:58;;;;;;;6.28;1.70;;;11.10;99.90;;;;;;6183406;23;19997;-83
2021/10/07 04:44:24;;;;;;;7.20;1.70;;;11.00;99.90;;;;;;6183519;23;20011;-83
2021/10/07 04:46:50;;;;;;;7.22;1.83;;;11.00;99.90;;;;;;6183014;23;20025;-83
2021/10/07 04:49:15;;;;;;;12.60;2.03;;;11.00;99.90;;;;;;6182912;23;20024;-83
2021/10/07 04:51:41;;;;;;;7.50;1.85;;;11.00;99.90;;;;;;6183405;23;20001;-83
2021/10/07 04:54:07;;;;;;;10.02;2.00;;;11.00;99.90;;;;;;6156974;23;20013;-83
2021/10/07 04:56:32;;;;;;;10.45;2.22;;;11.00;99.90;;;;;;6182911;23;20048;-83
2021/10/07 04:58:58;;;;;;;6.22;2.75;;;11.00;99.90;;;;;;6183208;23;20005;-83
2021/10/07 05:01:24;;;;;;;11.25;1.85;;;11.00;99.90;;;;;;6157447;23;20005;-83
2021/10/07 05:03:51;;;;;;;8.93;1.98;;;11.00;99.90;;;;;;6158746;23;20005;-83
2021/10/07 05:06:17;;;;;;;10.50;1.60;;;10.90;99.90;;;;;;6183807;23;20005;-83
2021/10/07 05:08:43;;;;;;;6.22;1.90;;;10.90;99.90;;;;;;6183318;23;20025;-83
2021/10/07 05:11:09;;;;;;;7.60;2.25;;;10.90;99.90;;;;;;6183538;23;20129;-83
2021/10/07 05:13:34;;;;;;;11.20;1.98;;;10.80;99.90;;;;;;6183371;23;20009;-83
2021/10/07 05:16:00;;;;;;;7.30;2.20;;;10.80;99.90;;;;;;6182991;23;20001;-83
2021/10/07 05:18:26;;;;;;;8.30;1.95;;;10.80;99.90;;;;;;6157036;23;20060;-83
2021/10/07 05:20:53;;;;;;;9.70;1.80;;;10.80;99.90;;;;;;6183102;23;20001;-83
2021/10/07 05:23:19;;;;;;;6.57;1.90;;;10.80;99.90;;;;;;6183285;23;20237;-83
2021/10/07 05:25:47;;;;;;;4.72;1.80;;;10.80;99.90;;;;;;6156672;23;20012;-83
2021/10/07 05:28:13;;;;;;;7.57;2.10;;;10.80;99.90;;;;;;6182914;23;20441;-83
2021/10/07 05:30:38;;;;;;;13.18;2.70;;;10.80;99.90;;;;;;6183248;23;20036;-83
2021/10/07 05:33:04;;;;;;;7.60;2.42;;;10.70;99.90;;;;;;6182923;23;20017;-83
2021/10/07 05:35:30;;;;;;;13.15;2.65;;;10.70;99.90;;;;;;6182742;23;20452;-83
2021/10/07 05:37:55;;;;;;;8.48;2.88;;;10.70;99.90;;;;;;6183147;23;20036;-84
2021/10/07 05:40:21;;;;;;;13.55;3.30;;;10.80;99.90;;;;;;6183382;23;20005;-83
2021/10/07 05:42:47;;;;;;;8.95;2.78;;;10.80;99.90;;;;;;6183032;23;20001;-83
2021/10/07 05:45:12;;;;;;;9.32;2.80;;;10.80;99.90;;;;;;6183236;23;19997;-83
2021/10/07 05:47:39;;;;;;;7.82;3.10;;;10.80;99.90;;;;;;6182613;23;20055;-82
2021/10/07 05:50:07;;;;;;;7.22;3.03;;;10.80;99.90;;;;;;6182197;23;20354;-81
2021/10/07 05:52:33;;;;;;;10.52;3.10;;;10.80;99.90;;;;;;6181891;23;20009;-81
2021/10/07 05:54:58;;;;;;;15.60;5.95;;;10.80;99.90;;;;;;6182302;23;20051;-81
2021/10/07 05:57:24;;;;;;;12.20;4.90;;;10.80;99.90;;;;;;6181347;23;20063;-81
2021/10/07 05:59:51;;;;;;;12.02;4.50;;;10.70;99.90;;;;;;6182290;23;20327;-81
2021/10/07 06:02:17;;;;;;;11.00;4.20;;;10.70;99.90;;;;;;6182748;23;19997;-81
2021/10/07 06:04:43;;;;;;;12.95;4.07;;;10.70;99.90;;;;;;6182505;23;20005;-81
2021/10/07 06:07:08;;;;;;;8.60;3.53;;;10.70;99.90;;;;;;6182960;23;20068;-81
2021/10/07 06:09:34;;;;;;;11.80;3.80;;;10.70;99.90;;;;;;6182362;23;20001;-81
2021/10/07 06:12:00;;;;;;;8.10;3.58;;;10.70;99.90;;;;;;6182061;23;20371;-83
2021/10/07 06:14:26;;;;;;;8.95;4.05;;;10.70;99.90;;;;;;6182773;23;20080;-83
2021/10/07 06:16:53;;;;;;;10.57;4.07;;;10.70;99.90;;;;;;6182221;23;20074;-82
2021/10/07 06:19:22;;;;;;;13.30;4.45;;;10.70;99.90;;;;;;6182436;23;20012;-82
2021/10/07 06:21:48;;;;;;;11.23;3.50;;;10.80;99.90;;;;;;6182495;23;20362;-83
2021/10/07 06:24:14;;;;;;;8.65;3.35;;;10.80;99.90;;;;;;6182700;23;20031;-82
2021/10/07 06:26:41;;;;;;;9.73;3.38;;;10.80;99.90;;;;;;6182431;23;20008;-82
2021/10/07 06:29:07;;;;;;;9.25;3.80;;;10.80;99.90;;;;;;6182381;23;20063;-82
2021/10/07 06:31:34;;;;;;;13.40;4.07;;;10.80;99.90;;;;;;6182294;23;20008;-82
2021/10/07 06:33:59;;;;;;;10.88;3.72;;;10.90;99.90;;;;;;6182451;23;20438;-83
2021/10/07 06:36:25;;;;;;;16.58;4.50;;;10.90;99.90;;;;;;6182267;23;19997;-83
2021/10/07 06:38:51;;;;;;;11.90;3.45;;;11.00;99.90;;;;;;6182405;23;20005;-82
2021/10/07 06:41:17;;;;;;;11.77;3.80;;;11.00;99.90;;;;;;6182324;23;20017;-83
2021/10/07 06:43:43;;;;;;;12.20;3.55;;;11.00;99.90;;;;;;6182692;23;20059;-83
2021/10/07 06:46:09;;;;;;;9.13;3.50;;;11.10;99.90;;;;;;6182209;23;20005;-83
2021/10/07 06:48:35;;;;;;;8.13;3.83;;;11.20;99.90;;;;;;6181902;23;20017;-82
2021/10/07 06:51:02;;;;;;;15.98;4.43;;;11.20;99.90;;;;;;6182538;23;20036;-83
2021/10/07 06:53:29;;;;;;;12.27;4.40;;;11.30;99.90;;;;;;6182023;23;20017;-83
2021/10/07 06:55:54;;;;;;;8.68;4.38;;;11.30;99.90;;;;;;6182399;23;20005;-82
2021/10/07 06:58:20;;;;;;;10.35;4.30;;;11.40;99.90;;;;;;6182160;23;20442;-82
2021/10/07 07:00:46;;;;;;;13.85;4.60;;;11.40;99.90;;;;;;6181945;23;20446;-82
2021/10/07 07:03:11;;;;;;;14.80;4.40;;;11.50;99.90;;;;;;6182280;23;20077;-83
2021/10/07 07:05:37;;;;;;;11.60;4.30;;;11.60;99.90;;;;;;6182088;23;20024;-82
2021/10/07 07:08:03;;;;;;;16.42;4.95;;;11.70;99.90;;;;;;6182197;23;20442;-81
2021/10/07 07:10:29;;;;;;;13.93;4.15;;;11.70;99.90;;;;;;6182370;23;20004;-81
2021/10/07 07:12:54;;;;;;;13.43;4.28;;;11.80;99.90;;;;;;6182236;23;20020;-81
2021/10/07 07:15:21;;;;;;;22.05;4.60;;;11.90;99.90;;;;;;6181908;23;19998;-81
2021/10/07 07:17:47;;;;;;;13.85;4.13;;;12.00;99.90;;;;;;6182121;23;20072;-81
2021/10/07 07:20:14;;;;;;;9.43;3.30;;;12.10;99.90;;;;;;6155556;23;20322;-81
2021/10/07 07:22:40;;;;;;;11.60;3.70;;;12.20;99.90;;;;;;6182065;23;20440;-81
2021/10/07 07:25:08;;;;;;;19.55;3.80;;;12.30;99.90;;;;;;6181992;23;20071;-81
2021/10/07 07:27:34;;;;;;;14.13;3.78;;;12.40;99.90;;;;;;6182191;23;20037;-81
2021/10/07 07:30:02;;;;;;;9.40;3.42;;;12.50;99.90;;;;;;6181611;23;20052;-81
2021/10/07 07:32:28;;;;;;;9.77;3.70;;;12.60;99.90;;;;;;6155586;23;20104;-80
2021/10/07 07:34:54;;;;;;;12.57;4.63;;;12.70;99.90;;;;;;6181907;23;20055;-81
2021/10/07 07:37:19;;;;;;;11.93;4.22;;;12.70;99.90;;;;;;6182177;23;20009;-81
2021/10/07 07:39:45;;;;;;;8.73;3.45;;;12.80;99.90;;;;;;6155436;23;20083;-81
2021/10/07 07:42:11;;;;;;;13.95;4.38;;;12.90;99.90;;;;;;6181736;23;20326;-81
2021/10/07 07:44:36;;;;;;;13.32;4.28;;;13.00;99.90;;;;;;6181876;23;20090;-81
2021/10/07 07:47:02;;;;;;;11.77;3.97;;;13.00;99.90;;;;;;6181601;23;20253;-81
2021/10/07 07:49:29;;;;;;;10.25;4.05;;;13.10;99.90;;;;;;6181537;23;20044;-81
2021/10/07 07:51:55;;;;;;;9.75;3.30;;;13.20;99.90;;;;;;6155146;23;20032;-81
2021/10/07 07:54:21;;;;;;;12.27;3.15;;;13.20;99.90;;;;;;6181732;23;20446;-81
2021/10/07 07:56:46;;;;;;;14.48;3.92;;;13.30;99.90;;;;;;6182037;23;19997;-81
2021/10/07 07:59:12;;;;;;;9.18;3.03;;;13.40;99.90;;;;;;6181953;23;20242;-81
2021/10/07 08:01:38;;;;;;;12.02;2.65;;;13.40;99.90;;;;;;6181705;23;20005;-81
2021/10/07 08:04:06;;;;;;;8.80;3.08;;;13.50;99.90;;;;;;6181928;23;20001;-81
2021/10/07 08:06:32;;;;;;;16.08;2.75;;;13.60;99.90;;;;;;6181717;23;19997;-81
2021/10/07 08:08:58;;;;;;;9.93;2.53;;;13.70;99.90;;;;;;6181560;23;20009;-81
2021/10/07 08:11:24;;;;;;;12.60;2.13;;;13.80;99.90;;;;;;6155404;23;20006;-81
2021/10/07 08:13:50;;;;;;;10.93;2.70;;;13.90;99.90;;;;;;6183593;23;20009;-81
2021/10/07 08:16:16;;;;;;;8.82;1.80;;;14.00;99.90;;;;;;6183649;23;20008;-81
2021/10/07 08:18:41;;;;;;;11.63;2.55;;;14.10;99.90;;;;;;6183717;23;20009;-81
2021/10/07 08:21:07;;;;;;;9.60;2.10;;;14.10;99.90;;;;;;6183554;23;20001;-81
2021/10/07 08:23:35;;;;;;;11.00;1.90;;;14.20;99.90;;;;;;6183985;23;20051;-81
2021/10/07 08:26:01;;;;;;;14.93;2.70;;;14.30;99.90;;;;;;6183368;23;20009;-81
2021/10/07 08:28:27;;;;;;;6.00;1.95;;;14.40;99.90;;;;;;6183529;23;20490;-81
2021/10/07 08:30:53;;;;;;;8.90;1.95;;;14.50;99.90;;;;;;6183959;23;20087;-81
2021/10/07 08:33:19;;;;;;;11.23;2.08;;;14.50;99.90;;;;;;6183600;23;20008;-81
2021/10/07 08:35:48;;;;;;;13.45;1.90;;;14.60;99.90;;;;;;6183327;23;20008;-81
2021/10/07 08:38:14;;;;;;;12.50;1.95;;;14.70;99.90;;;;;;6183412;23;20001;-82
2021/10/07 08:40:41;;;;;;;15.60;2.42;;;14.70;99.90;;;;;;6183818;23;20001;-81
2021/10/07 08:43:07;;;;;;;10.05;1.77;;;14.80;99.90;;;;;;6183345;23;20001;-81
2021/10/07 08:45:32;;;;;;;7.05;1.90;;;14.80;99.90;;;;;;6183368;23;20055;-82
2021/10/07 08:47:59;;;;;;;8.85;1.60;;;14.90;99.90;;;;;;6183277;23;20048;-81
2021/10/07 08:50:25;;;;;;;10.07;1.45;;;15.00;99.90;;;;;;6156899;23;20008;-81
2021/10/07 08:52:51;;;;;;;6.45;1.67;;;15.10;99.90;;;;;;6183211;23;20040;-81
2021/10/07 08:55:17;;;;;;;9.43;1.70;;;15.10;99.90;;;;;;6183620;23;20001;-81
2021/10/07 08:57:44;;;;;;;13.27;2.70;;;15.20;99.90;;;;;;6183351;23;20005;-81
2021/10/07 09:00:12;;;;;;;10.80;2.40;;;15.20;99.90;;;;;;6183157;23;20001;-81
2021/10/07 09:02:38;;;;;;;14.57;2.65;;;15.20;99.90;;;;;;6183276;23;20005;-81
2021/10/07 09:05:17;;;;;;;10.35;2.17;;;15.30;99.90;;;;;;6183591;23;20008;-81
2021/10/07 09:08:09;;;;;;;7.05;1.45;;;15.40;99.90;;;;;;6183376;23;20008;-82
2021/10/07 09:10:49;;;;;;;7.32;2.08;;;15.40;99.90;;;;;;6183175;23;20242;-82
2021/10/07 09:13:25;;;;;;;5.82;1.83;;;15.50;99.90;;;;;;6183174;23;20414;-81
2021/10/07 09:15:59;;;;;;;7.32;2.33;;;15.60;99.90;;;;;;6183069;23;20052;-81
2021/10/07 09:18:27;;;;;;;12.23;2.75;;;15.70;99.90;;;;;;6183391;23;20008;-82
2021/10/07 09:20:55;;;;;;;9.13;2.30;;;15.80;99.90;;;;;;6183285;23;20001;-81
2021/10/07 09:23:28;;;;;;;10.18;2.45;;;15.80;99.90;;;;;;6183183;23;20052;-81
2021/10/07 09:25:59;;;;;;;10.30;2.47;;;15.90;99.90;;;;;;6183403;23;20009;-81
2021/10/07 09:28:27;;;;;;;9.25;2.75;;;16.00;99.90;;;;;;6156690;23;20005;-81
2021/10/07 09:30:58;;;;;;;6.63;2.20;;;16.00;99.90;;;;;;6183226;23;20005;-81
2021/10/07 09:33:40;;;;;;;10.48;2.67;;;16.10;99.90;;;;;;6182748;23;20009;-81
2021/10/07 09:36:24;;;;;;;15.05;2.60;;;16.10;99.90;;;;;;6183118;23;20058;-82
2021/10/07 09:38:53;;;;;;;11.80;2.97;;;16.20;99.90;;;;;;6182998;23;20029;-81
2021/10/07 09:41:20;;;;;;;6.88;2.15;;;16.30;99.90;;;;;;6183089;23;20008;-81
2021/10/07 09:43:52;;;;;;;8.48;2.20;;;16.30;99.90;;;;;;6156661;23;19998;-81
2021/10/07 09:46:37;;;;;;;9.02;1.58;;;16.40;99.90;;;;;;6183067;23;20426;-81
2021/10/07 09:49:03;;;;;;;6.50;1.60;;;16.60;99.90;;;;;;6182778;23;20028;-81
2021/10/07 09:51:37;;;;;;;8.73;2.03;;;16.60;99.90;;;;;;6182680;23;20449;-81
2021/10/07 09:54:03;;;;;;;12.00;1.85;;;16.60;99.90;;;;;;6182780;23;20019;-81
2021/10/07 09:56:33;;;;;;;9.90;2.08;;;16.70;99.90;;;;;;6182951;23;20029;-81
2021/10/07 09:59:09;;;;;;;7.90;1.65;;;16.70;99.90;;;;;;6182790;23;20001;-81
2021/10/07 10:01:38;;;;;;;5.50;1.65;;;16.90;99.90;;;;;;6182956;23;20001;-81
2021/10/07 10:04:06;;;;;;;10.75;2.10;;;16.90;99.90;;;;;;6182589;23;20005;-82
2021/10/07 10:06:32;;;;;;;6.53;1.88;;;17.00;99.90;;;;;;6182826;23;20004;-82
2021/10/07 10:08:57;;;;;;;6.18;1.88;;;17.00;99.90;;;;;;6182686;23;20005;-82
2021/10/07 10:11:23;;;;;;;6.18;1.73;;;17.00;99.90;;;;;;6182949;23;20069;-81
2021/10/07 10:13:50;;;;;;;9.15;1.90;;;17.10;99.90;;;;;;6182607;23;20448;-82
2021/10/07 10:16:17;;;;;;;6.68;1.20;;;17.20;99.90;;;;;;6182812;23;20001;-81
2021/10/07 10:18:50;;;;;;;8.60;1.42;;;17.20;99.90;;;;;;6182521;23;20526;-81
2021/10/07 10:21:17;;;;;;;8.95;1.25;;;17.20;99.90;;;;;;6182700;23;20055;-81
2021/10/07 10:23:43;;;;;;;9.05;1.90;;;17.30;99.90;;;;;;6183237;23;20049;-81
2021/10/07 10:26:12;;;;;;;8.65;1.38;;;17.30;99.90;;;;;;6182429;23;20008;-81
2021/10/07 10:29:01;;;;;;;5.32;1.02;;;17.50;99.90;;;;;;6182397;23;20440;-81
2021/10/07 10:31:26;;;;;;;5.20;1.38;;;17.50;99.90;;;;;;6181983;23;20152;-81
2021/10/07 10:34:05;;;;;;;6.63;1.20;;;17.70;99.90;;;;;;6155914;23;20108;-81
2021/10/07 10:36:38;;;;;;;8.60;1.48;;;17.80;99.90;;;;;;6181949;23;20486;-81
2021/10/07 10:39:13;;;;;;;12.63;1.75;;;17.90;99.90;;;;;;6181900;23;20020;-81
2021/10/07 10:41:48;;;;;;;8.52;1.30;;;18.00;99.90;;;;;;6182217;23;20069;-81
2021/10/07 10:44:36;;;;;;;4.63;1.02;;;18.10;99.90;;;;;;6182497;23;20080;-81
2021/10/07 10:47:04;;;;;;;7.32;1.63;;;18.10;99.90;;;;;;6181956;23;20001;-81
2021/10/07 10:49:49;;;;;;;7.43;1.20;;;18.20;99.90;;;;;;6155696;23;20021;-82
2021/10/07 10:52:20;;;;;;;6.68;1.38;;;18.20;99.90;;;;;;6182203;23;20009;-81
2021/10/07 10:54:49;;;;;;;8.60;1.88;;;18.30;99.90;;;;;;6156016;23;20329;-81
2021/10/07 10:57:40;;;;;;;9.93;1.77;;;18.40;99.90;;;;;;6182980;23;20001;-82
2021/10/07 11:00:07;;;;;;;6.00;1.10;;;18.50;99.90;;;;;;6183095;23;20321;-81
2021/10/07 11:02:34;;;;;;;5.13;1.02;;;18.60;99.90;;;;;;6183172;23;20001;-81
2021/10/07 11:05:19;;;;;;;9.57;1.73;;;18.60;99.90;;;;;;6182404;23;19997;-82
2021/10/07 11:07:46;;;;;;;5.40;1.38;;;18.80;99.90;;;;;;6182387;23;20004;-81
2021/10/07 11:10:29;;;;;;;8.23;1.60;;;19.10;99.90;;;;;;6182059;23;20005;-82
2021/10/07 11:12:58;;;;;;;8.82;1.95;;;19.10;99.90;;;;;;6182064;23;20017;-82
2021/10/07 11:15:26;;;;;;;6.10;1.73;;;19.20;99.90;;;;;;6181933;23;20465;-82
2021/10/07 11:17:53;;;;;;;7.28;1.67;;;19.40;99.90;;;;;;6181508;23;20005;-81
2021/10/07 11:20:22;;;;;;;7.97;2.10;;;19.40;99.90;;;;;;6181916;23;20375;-82
2021/10/07 11:23:01;;;;;;;5.72;1.30;;;19.20;99.90;;;;;;6182020;23;20164;-82
2021/10/07 11:25:27;;;;;;;6.30;1.70;;;19.40;99.90;;;;;;6181824;23;20013;-81
2021/10/07 11:27:53;;;;;;;7.25;1.42;;;19.70;99.90;;;;;;6155395;23;20393;-82
2021/10/07 11:30:21;;;;;;;5.25;1.40;;;19.90;99.90;;;;;;6182730;23;20005;-82
2021/10/07 11:32:48;;;;;;;4.68;1.30;;;20.10;99.90;;;;;;6181649;23;20075;-81
2021/10/07 11:35:15;;;;;;;4.93;1.30;;;20.20;99.90;;;;;;6181809;23;20011;-81
2021/10/07 11:37:53;;;;;;;4.60;0.90;;;20.30;99.90;;;;;;6181656;23;20001;-82
2021/10/07 11:40:27;;;;;;;5.53;1.17;;;20.30;99.90;;;;;;6181910;23;20478;-82
2021/10/07 11:42:55;;;;;;;;;;;20.10;99.90;;;;;;6182265;23;20001;-82
2021/10/07 11:45:27;;;;;;;4.35;1.02;;;20.10;99.90;;;;;;6181912;23;19900;-82
2021/10/07 11:47:53;;;;;;;6.15;1.17;;;20.10;99.90;;;;;;6181037;23;20009;-82
2021/10/07 11:50:22;;;;;;;4.68;1.08;;;20.10;99.90;;;;;;6181958;23;20005;-81
2021/10/07 11:52:49;;;;;;;3.95;1.08;;;20.20;99.90;;;;;;6181649;23;20095;-81
2021/10/07 11:55:17;;;;;;;4.72;1.23;;;20.10;99.90;;;;;;6181634;23;20008;-82
2021/10/07 11:57:54;;;;;;;5.38;1.20;;;20.10;99.90;;;;;;6181738;23;20001;-81
2021/10/07 12:00:44;;;;;;;5.63;1.20;;;20.00;99.90;;;;;;6181910;23;20461;-81
2021/10/07 12:03:29;;;;;;;5.53;0.90;;;20.20;99.90;;;;;;6181590;23;20008;-82
2021/10/07 12:05:57;;;;;;;6.75;1.00;;;20.20;99.90;;;;;;6181855;23;20426;-82
2021/10/07 12:08:25;;;;;;;5.20;1.10;;;20.20;99.90;;;;;;6154988;23;20320;-82
2021/10/07 12:11:06;;;;;;;5.82;1.13;;;20.20;99.90;;;;;;6181830;23;20020;-82
2021/10/07 12:13:37;;;;;;;4.82;1.13;;;20.20;99.90;;;;;;6181398;23;20016;-81
2021/10/07 12:16:14;;;;;;;4.45;0.90;;;20.30;99.90;;;;;;6181388;23;20005;-81
2021/10/07 12:18:48;;;;;;;4.80;1.10;;;20.30;99.90;;;;;;6181303;23;20511;-81
2021/10/07 12:21:16;;;;;;;5.55;0.90;;;20.30;99.90;;;;;;6181607;23;20007;-82
2021/10/07 12:23:58;;;;;;;7.20;0.98;;;20.40;99.90;;;;;;6181398;23;20009;-82
2021/10/07 12:26:29;;;;;;;6.60;0.90;;;20.30;99.90;;;;;;6181471;23;20012;-82
2021/10/07 12:28:58;;;;;;;5.55;1.13;;;20.30;99.90;;;;;;6181731;23;20529;-81
2021/10/07 12:31:27;;;;;;;6.57;1.25;;;20.30;99.90;;;;;;6181549;23;20070;-81
2021/10/07 12:34:04;;;;;;;9.27;0.88;;;20.30;99.90;;;;;;6181274;23;20013;-81
2021/10/07 12:36:37;;;;;;;5.35;1.00;;;20.50;99.90;;;;;;6181366;23;20469;-81
2021/10/07 12:39:19;;;;;;;4.20;0.85;;;20.70;99.90;;;;;;6154586;23;20346;-82
2021/10/07 12:41:45;;;;;;;4.43;1.00;;;20.80;99.90;;;;;;6181821;23;19997;-82
2021/10/07 12:44:18;;;;;;;5.30;0.75;;;21.00;99.90;;;;;;6181426;23;20005;-81
2021/10/07 12:46:58;;;;;;;3.30;0.93;;;21.10;99.90;;;;;;6181631;23;20461;-81
2021/10/07 12:49:34;;;;;;;5.25;0.93;;;21.10;99.90;;;;;;6181062;23;20450;-81
2021/10/07 12:52:00;;;;;;;4.22;0.73;;;21.10;99.20;;;;;;6181616;23;20157;-81